createdAt,value
2018-07-27T00:02:06.636Z,27.28
2018-07-27T00:07:09.122Z,27.33
2018-07-27T00:12:11.612Z,27.36
2018-07-27T00:17:14.092Z,27.26
2018-07-27T00:22:16.517Z,27.28
2018-07-27T00:27:18.680Z,27.22
2018-07-27T00:32:20.832Z,27.23
2018-07-27T00:37:22.994Z,27.22
2018-07-27T00:42:27.867Z,27.16
2018-07-27T00:47:29.983Z,27.11
2018-07-27T00:52:32.105Z,27.10
2018-07-27T00:57:34.214Z,27.08
2018-07-27T01:02:36.340Z,27.00
2018-07-27T01:07:38.482Z,26.91
2018-07-27T01:12:40.642Z,26.90
2018-07-27T01:17:42.786Z,26.83
2018-07-27T01:22:45.580Z,26.87
2018-07-27T01:27:47.736Z,26.84
2018-07-27T01:32:49.931Z,26.76
2018-07-27T01:37:52.056Z,26.77
2018-07-27T01:42:54.222Z,26.77
2018-07-27T01:47:56.318Z,26.74
2018-07-27T01:52:58.496Z,26.73
2018-07-27T01:58:00.615Z,26.68
2018-07-27T02:03:02.757Z,26.68
2018-07-27T02:08:04.939Z,26.67
2018-07-27T02:13:07.073Z,26.68
2018-07-27T02:18:09.222Z,26.69
2018-07-27T02:23:11.313Z,26.61
2018-07-27T02:28:13.476Z,26.56
2018-07-27T02:33:15.593Z,26.50
2018-07-27T02:38:17.698Z,26.46
2018-07-27T02:43:19.856Z,26.42
2018-07-27T02:48:21.960Z,26.41
2018-07-27T02:53:24.135Z,26.34
2018-07-27T02:58:26.280Z,26.35
2018-07-27T03:03:28.426Z,26.26
2018-07-27T03:08:30.558Z,26.26
2018-07-27T03:13:32.707Z,26.26
2018-07-27T03:18:34.809Z,26.24
2018-07-27T03:23:36.915Z,26.16
2018-07-27T03:28:39.048Z,26.10
2018-07-27T03:33:41.172Z,26.10
2018-07-27T03:38:43.306Z,26.11
2018-07-27T03:43:45.483Z,26.16
2018-07-27T03:48:47.618Z,26.16
2018-07-27T03:53:49.730Z,26.14
2018-07-27T03:58:52.315Z,26.16
2018-07-27T04:03:54.518Z,26.08
2018-07-27T04:08:56.611Z,26.15
2018-07-27T04:13:58.718Z,26.20
2018-07-27T04:19:01.122Z,26.25
2018-07-27T04:24:03.252Z,26.26
2018-07-27T04:29:05.393Z,26.22
2018-07-27T04:34:07.523Z,26.22
2018-07-27T04:39:10.491Z,26.32
2018-07-27T04:44:12.672Z,26.42
2018-07-27T04:49:14.777Z,26.44
2018-07-27T04:54:16.963Z,26.53
2018-07-27T04:59:19.132Z,26.47
2018-07-27T05:04:21.277Z,26.52
2018-07-27T05:09:23.519Z,26.49
2018-07-27T05:14:25.685Z,26.56
2018-07-27T05:19:27.837Z,26.70
2018-07-27T05:24:29.962Z,26.57
2018-07-27T05:29:32.134Z,26.56
2018-07-27T05:34:34.286Z,26.52
2018-07-27T05:39:36.405Z,26.68
2018-07-27T05:44:38.568Z,26.80
2018-07-27T05:49:40.693Z,26.85
2018-07-27T05:54:42.876Z,26.76
2018-07-27T05:59:45.012Z,26.85
2018-07-27T06:04:47.203Z,26.88
2018-07-27T06:09:49.323Z,26.87
2018-07-27T06:14:51.415Z,26.94
2018-07-27T06:19:53.573Z,27.11
2018-07-27T06:24:55.747Z,27.09
2018-07-27T06:29:57.983Z,27.01
2018-07-27T06:35:00.095Z,26.93
2018-07-27T06:40:02.332Z,27.12
2018-07-27T06:45:05.620Z,27.35
2018-07-27T06:50:07.760Z,27.48
2018-07-27T06:55:09.899Z,27.54
2018-07-27T07:00:12.058Z,27.36
2018-07-27T07:05:14.212Z,27.32
2018-07-27T07:10:16.380Z,27.42
2018-07-27T07:15:18.594Z,27.44
2018-07-27T07:20:20.788Z,27.47
2018-07-27T07:25:22.982Z,27.47
2018-07-27T07:30:25.105Z,27.61
2018-07-27T07:35:27.280Z,27.56
2018-07-27T07:40:29.447Z,27.73
2018-07-27T07:45:31.648Z,27.87
2018-07-27T07:50:33.829Z,27.76
2018-07-27T07:55:36.218Z,27.80
2018-07-27T08:00:38.338Z,27.86
2018-07-27T08:05:40.487Z,27.93
2018-07-27T08:10:43.888Z,28.00
2018-07-27T08:15:46.094Z,28.08
2018-07-27T08:20:48.270Z,27.94
2018-07-27T08:27:01.446Z,28.01
2018-07-27T08:32:03.957Z,28.25
2018-07-27T08:37:06.451Z,28.35
2018-07-27T08:42:08.657Z,28.37
2018-07-27T08:47:10.860Z,28.17
2018-07-27T08:52:15.623Z,28.33
2018-07-27T08:57:17.807Z,28.54
2018-07-27T09:02:19.940Z,28.61
2018-07-27T09:07:22.075Z,28.50
2018-07-27T09:12:24.234Z,28.57
2018-07-27T09:17:26.401Z,28.73
2018-07-27T09:22:28.515Z,28.90
2018-07-27T09:27:30.736Z,28.90
2018-07-27T09:32:32.892Z,29.01
2018-07-27T09:37:35.055Z,29.16
2018-07-27T09:42:37.298Z,29.12
2018-07-27T09:47:39.552Z,29.13
2018-07-27T09:52:42.197Z,29.09
2018-07-27T09:57:44.494Z,29.29
2018-07-27T10:02:46.843Z,29.33
2018-07-27T10:07:48.997Z,29.33
2018-07-27T10:12:51.466Z,29.13
2018-07-27T10:17:53.937Z,29.21
2018-07-27T10:22:56.123Z,29.23
2018-07-27T10:27:58.323Z,29.42
2018-07-27T10:33:00.527Z,29.58
2018-07-27T10:38:02.714Z,29.81
2018-07-27T10:43:04.947Z,29.99
2018-07-27T10:48:07.132Z,30.09
2018-07-27T10:53:09.288Z,30.45
2018-07-27T10:58:11.505Z,30.58
2018-07-27T11:03:13.691Z,30.77
2018-07-27T11:08:15.889Z,30.79
2018-07-27T11:13:18.056Z,31.06
2018-07-27T11:18:20.231Z,30.91
2018-07-27T11:23:22.738Z,31.04
2018-07-27T11:28:24.923Z,31.14
2018-07-27T11:33:27.508Z,31.37
2018-07-27T11:38:29.727Z,31.56
2018-07-27T11:43:31.974Z,31.85
2018-07-27T11:48:34.170Z,31.93
2018-07-27T11:53:36.732Z,32.16
2018-07-27T11:58:38.925Z,32.30
2018-07-27T12:03:41.152Z,32.31
2018-07-27T12:08:43.318Z,32.61
2018-07-27T12:13:45.521Z,32.75
2018-07-27T12:18:47.632Z,32.92
2018-07-27T12:23:49.845Z,33.00
2018-07-27T12:28:52.043Z,33.31
2018-07-27T12:33:54.834Z,33.03
2018-07-27T12:38:57.056Z,32.67
2018-07-27T12:43:59.233Z,32.46
2018-07-27T12:49:01.514Z,32.29
2018-07-27T12:54:03.696Z,32.26
2018-07-27T12:59:05.880Z,32.62
2018-07-27T13:04:08.080Z,32.48
2018-07-27T13:09:11.375Z,32.85
2018-07-27T13:14:13.555Z,33.04
2018-07-27T13:19:15.865Z,32.81
2018-07-27T13:24:18.073Z,32.73
2018-07-27T13:29:20.284Z,32.50
2018-07-27T13:34:33.253Z,32.51
2018-07-27T13:39:35.958Z,32.64
2018-07-27T13:44:38.425Z,32.30
2018-07-27T13:49:40.650Z,32.75
2018-07-27T13:54:43.131Z,32.88
2018-07-27T13:59:45.318Z,33.17
2018-07-27T14:04:47.501Z,33.22
2018-07-27T14:09:49.640Z,33.00
2018-07-27T14:14:51.842Z,32.88
2018-07-27T14:19:54.047Z,32.84
2018-07-27T14:24:56.227Z,32.46
2018-07-27T14:29:58.420Z,32.78
2018-07-27T14:35:00.574Z,32.85
2018-07-27T14:40:02.768Z,32.89
2018-07-27T14:45:05.006Z,32.88
2018-07-27T14:50:07.240Z,33.18
2018-07-27T14:55:09.400Z,32.80
2018-07-27T15:00:11.569Z,32.87
2018-07-27T15:05:13.672Z,32.86
2018-07-27T15:10:15.846Z,32.75
2018-07-27T15:15:17.959Z,32.87
2018-07-27T15:20:20.182Z,33.14
2018-07-27T15:25:22.455Z,33.02
2018-07-27T15:30:24.609Z,33.24
2018-07-27T15:35:26.986Z,33.16
2018-07-27T15:40:29.156Z,32.94
2018-07-27T15:45:31.315Z,32.80
2018-07-27T15:50:33.496Z,32.91
2018-07-27T15:55:35.696Z,32.98
2018-07-27T16:00:37.824Z,32.81
2018-07-27T16:05:39.997Z,32.79
2018-07-27T16:10:42.150Z,32.85
2018-07-27T16:15:44.284Z,32.85
2018-07-27T16:20:46.428Z,32.75
2018-07-27T16:25:48.610Z,32.79
2018-07-27T16:30:50.814Z,32.56
2018-07-27T16:35:53.417Z,32.58
2018-07-27T16:40:55.541Z,32.31
2018-07-27T16:45:57.757Z,32.10
2018-07-27T16:50:59.952Z,31.83
2018-07-27T16:56:02.106Z,31.64
2018-07-27T17:01:04.314Z,31.78
2018-07-27T17:06:06.544Z,31.46
2018-07-27T17:11:08.708Z,31.59
2018-07-27T17:16:11.140Z,31.75
2018-07-27T17:21:13.358Z,31.66
2018-07-27T17:26:15.504Z,31.58
2018-07-27T17:31:17.638Z,31.35
2018-07-27T17:36:19.783Z,31.23
2018-07-27T17:41:21.953Z,31.35
2018-07-27T17:46:24.148Z,31.20
2018-07-27T17:51:26.359Z,30.79
2018-07-27T17:56:28.538Z,30.66
2018-07-27T18:01:30.771Z,29.73
2018-07-27T18:06:32.949Z,29.91
2018-07-27T18:11:35.111Z,29.62
2018-07-27T18:16:37.365Z,29.32
2018-07-27T18:21:39.558Z,29.07
2018-07-27T18:26:41.773Z,28.82
2018-07-27T18:31:43.947Z,28.64
2018-07-27T18:36:46.173Z,28.39
2018-07-27T18:41:48.333Z,28.43
2018-07-27T18:46:50.463Z,28.53
2018-07-27T18:51:52.732Z,28.51
2018-07-27T18:56:54.944Z,28.45
2018-07-27T19:01:57.157Z,28.43
2018-07-27T19:06:59.353Z,28.20
2018-07-27T19:12:01.537Z,28.08
2018-07-27T19:17:03.744Z,28.14
2018-07-27T19:22:06.166Z,27.83
2018-07-27T19:27:08.656Z,27.89
2018-07-27T19:32:10.913Z,27.92
2018-07-27T19:37:13.117Z,27.63
2018-07-27T19:42:15.342Z,27.50
2018-07-27T19:47:17.512Z,27.63
2018-07-27T19:52:19.722Z,27.58
2018-07-27T19:57:21.928Z,27.60
2018-07-27T20:02:24.292Z,27.61
2018-07-27T20:07:26.424Z,27.51
2018-07-27T20:12:28.650Z,27.43
2018-07-27T20:17:31.270Z,27.15
2018-07-27T20:22:33.538Z,27.51
2018-07-27T20:27:35.916Z,27.50
2018-07-27T20:32:38.425Z,27.52
2018-07-27T20:37:40.639Z,27.56
2018-07-27T20:42:42.904Z,27.55
2018-07-27T20:47:45.113Z,27.29
2018-07-27T20:52:47.355Z,27.37
2018-07-27T20:57:49.632Z,27.34
2018-07-27T21:02:51.874Z,27.27
2018-07-27T21:07:54.554Z,27.14
2018-07-27T21:12:56.727Z,27.07
2018-07-27T21:17:58.982Z,27.06
2018-07-27T21:23:01.228Z,27.07
2018-07-27T21:28:03.435Z,27.08
2018-07-27T21:33:05.798Z,26.92
2018-07-27T21:38:08.161Z,26.97
2018-07-27T21:43:10.368Z,26.78
2018-07-27T21:48:13.243Z,26.67
2018-07-27T21:53:15.659Z,26.64
2018-07-27T21:58:17.957Z,26.56
2018-07-27T22:03:20.222Z,26.55
2018-07-27T22:08:22.467Z,26.46
2018-07-27T22:13:24.731Z,26.47
2018-07-27T22:18:26.867Z,26.20
2018-07-27T22:23:30.021Z,26.27
2018-07-27T22:28:32.370Z,26.39
2018-07-27T22:33:34.923Z,26.21
2018-07-27T22:38:37.216Z,26.25
2018-07-27T22:43:39.384Z,25.77
2018-07-27T22:48:41.616Z,25.65
2018-07-27T22:53:43.793Z,25.66
2018-07-27T22:58:46.012Z,25.36
2018-07-27T23:03:48.215Z,25.19
2018-07-27T23:08:50.387Z,25.12
2018-07-27T23:13:52.563Z,25.08
2018-07-27T23:18:54.738Z,25.12
2018-07-27T23:23:56.890Z,24.91
2018-07-27T23:28:59.070Z,24.83
2018-07-27T23:34:01.224Z,24.80
2018-07-27T23:39:07.080Z,24.82
2018-07-27T23:44:09.219Z,24.94
2018-07-27T23:49:11.375Z,25.23
2018-07-27T23:54:13.558Z,25.36
2018-07-27T23:59:15.688Z,25.46
